Shelby County Airport
KEET : now visible

Airfield :











YOU CAN JOIN US ON...

 
LOGIN :

Register | Disclaimer

   EN    FR    IT 

 









Legend :    VFR   Marginal VFR   IFR   Intensive IFR   Very Intensive IFR
Visi :
Ceiling :
>= 8 km
>= 3000ft
5 to 8 km
1000 to 3000 ft
1500m to 5 km
500 to 1000 ft
800 to 1500m
200 to 500 ft
< 800m
< 200 ft
Symbols :   Thunderstorms  Fog  Heavy snow  Heavy precipitations  Wind > 20 kt







- Airport Elevation : 586 ft


KEET - Shelby County

CURRENT METAR :
  • 191153Z AUTO 00000KT 10SM FEW010 BKN023 OVC029 16/14 A2955 RMK AO2 SLP001 60004 70144 T01560144 10172 20156 53005

EXPIRED METARs :
  • 191053Z AUTO 27003KT 10SM FEW014 BKN020 OVC033 16/14 A2953 RMK AO2 SLP994 T01560144
  • 191035Z AUTO 25005KT 10SM SCT009 BKN017 OVC032 16/15 A2953 RMK AO2 T01610150
  • 190953Z AUTO VRB04KT 10SM BKN010 OVC014 16/16 A2952 RMK AO2 RAE0858 CIG 008V013 SLP992 P0000 T01610156

TAF KEET
Valid from the 19 at 12:00 until the 20 at 12:00 UTC


191128Z 1912/2012 25008KT P6SM VCSH BKN010 OVC015
FM191300 29012KT P6SM VCSH BKN007 OVC015
FM191800 30013KT 6SM -RA BKN009 OVC025
FM192100 25018G28KT 3SM -RA OVC015
FM200300 24012KT 3SM -RA OVC007
FM200900 25009KT P6SM VCSH OVC015
KZTL FIR / North America



MET'MAP, your aeronautical weather chart ! - Copyright ORBIFLY December 2007 - Disclaimer

ORBIFLY MET'MAP TEAM :

Programming & Development : Alexandra Zaïnal
Concept & Development : Baudouin d'Aumeries
Co-Development & Prog : Marc-Olivier Méhu
Technical & hardware support : Manuel Goepfert

Contact : metmap@orbifly.com




SOURCES & CREDITS :

   NOAA       Earth
Advisory